Time;durP1;ratioP1;P1;durP2;ratioP2;P2;SDS_P1;SDS_P2;PMS_P1;PMS_P2;Temp;Humidity;BMP_temperature;BMP_pressure;BME280_temperature;BME280_humidity;BME280_pressure;Samples;Min_cycle;Max_cycle;Signal;HPM_P1;HPM_P2
2022/08/18 00:01:31;;;;;;;20.92;13.48;;;18.70;99.90;;;;;;4962613;28;20039;-45
2022/08/18 00:03:59;;;;;;;23.85;14.43;;;18.50;99.90;;;;;;4963952;28;20043;-47
2022/08/18 00:06:26;;;;;;;19.17;13.82;;;18.70;99.90;;;;;;4963188;28;20070;-49
2022/08/18 00:08:51;;;;;;;25.60;13.65;;;18.70;99.90;;;;;;4964201;28;20061;-45
2022/08/18 00:11:17;;;;;;;22.92;14.45;;;18.50;99.90;;;;;;4964028;28;20486;-45
2022/08/18 00:13:42;;;;;;;22.08;13.38;;;18.50;99.90;;;;;;4963545;28;20047;-46
2022/08/18 00:16:08;;;;;;;21.00;14.52;;;18.60;99.90;;;;;;4961524;28;20043;-45
2022/08/18 00:18:34;;;;;;;21.27;14.18;;;18.50;99.90;;;;;;4963816;28;20058;-46
2022/08/18 00:21:01;;;;;;;24.23;14.25;;;18.70;99.90;;;;;;4962669;28;20074;-47
2022/08/18 00:23:27;;;;;;;20.48;13.57;;;18.50;99.90;;;;;;4962919;28;20046;-46
2022/08/18 00:25:54;;;;;;;23.48;14.48;;;18.50;99.90;;;;;;4963623;28;20037;-45
2022/08/18 00:28:19;;;;;;;19.30;14.10;;;18.60;99.90;;;;;;4962493;28;20453;-46
2022/08/18 00:30:45;;;;;;;23.27;14.55;;;18.60;99.90;;;;;;4963613;28;20486;-45
2022/08/18 00:33:11;;;;;;;23.02;14.13;;;18.50;99.90;;;;;;4961711;28;20051;-47
2022/08/18 00:35:38;;;;;;;24.17;13.95;;;18.60;99.90;;;;;;4962199;28;20114;-46
2022/08/18 00:38:06;;;;;;;26.30;15.10;;;18.60;99.90;;;;;;4963104;28;20042;-49
2022/08/18 00:40:41;;;;;;;21.00;14.40;;;18.60;99.90;;;;;;4961755;28;20031;-49
2022/08/18 00:43:12;;;;;;;21.20;14.68;;;18.50;99.90;;;;;;4962366;28;20117;-46
2022/08/18 00:45:41;;;;;;;22.63;14.10;;;18.60;99.90;;;;;;4963500;28;20047;-46
2022/08/18 00:48:09;;;;;;;23.95;15.10;;;18.70;99.90;;;;;;4962537;28;20089;-46
2022/08/18 00:51:02;;;;;;;20.30;14.82;;;18.70;99.90;;;;;;4962531;28;20081;-49
2022/08/18 00:53:34;;;;;;;22.98;13.65;;;18.80;99.90;;;;;;4961642;28;20145;-47
2022/08/18 00:56:07;;;;;;;22.63;14.30;;;18.60;99.90;;;;;;4962689;28;20050;-47
2022/08/18 00:58:46;;;;;;;18.40;13.75;;;18.60;99.90;;;;;;4961998;28;20150;-47
2022/08/18 01:01:14;;;;;;;22.17;14.80;;;18.60;99.90;;;;;;4944980;28;20045;-46
2022/08/18 01:03:42;;;;;;;22.63;14.20;;;18.50;99.90;;;;;;4962378;28;20399;-47
2022/08/18 01:06:20;;;;;;;21.60;14.60;;;18.80;99.90;;;;;;4961735;28;20043;-50
2022/08/18 01:08:46;;;;;;;17.98;13.63;;;18.70;99.90;;;;;;4963418;28;20129;-46
2022/08/18 01:11:12;;;;;;;21.77;14.15;;;18.80;99.90;;;;;;4961203;28;20174;-46
2022/08/18 01:13:40;;;;;;;27.05;14.45;;;18.60;99.90;;;;;;4961861;28;20053;-44
2022/08/18 01:21:49;;;;;;;18.00;13.57;;;18.70;99.90;;;;;;4961856;28;20097;-46
2022/08/18 01:24:16;;;;;;;22.15;14.35;;;18.70;99.90;;;;;;4961675;28;20055;-49
2022/08/18 01:26:48;;;;;;;21.52;13.90;;;18.70;99.90;;;;;;4961678;28;20038;-48
2022/08/18 01:29:16;;;;;;;23.10;14.18;;;18.50;99.90;;;;;;4962097;28;20105;-46
2022/08/18 01:31:48;;;;;;;23.10;14.95;;;18.60;99.90;;;;;;4961686;28;20047;-47
2022/08/18 01:34:15;;;;;;;20.50;14.68;;;18.50;99.90;;;;;;4961058;28;20059;-48
2022/08/18 01:36:42;;;;;;;24.15;15.05;;;18.50;99.90;;;;;;4960990;28;20046;-48
2022/08/18 01:39:10;;;;;;;27.10;15.93;;;18.70;99.90;;;;;;4962310;28;20483;-47
2022/08/18 01:41:37;;;;;;;23.23;14.82;;;18.70;99.90;;;;;;4961427;28;20050;-49
2022/08/18 01:44:04;;;;;;;20.77;15.35;;;18.60;99.90;;;;;;4965513;28;20031;-46
2022/08/18 01:46:32;;;;;;;21.08;14.90;;;18.80;99.90;;;;;;4966439;28;20047;-48
2022/08/18 01:48:59;;;;;;;21.95;14.77;;;18.50;99.90;;;;;;4965528;28;20090;-46
2022/08/18 01:51:27;;;;;;;27.38;16.33;;;18.50;99.90;;;;;;4965393;28;20031;-48
2022/08/18 01:53:53;;;;;;;22.15;15.18;;;18.60;99.90;;;;;;4965273;28;20121;-46
2022/08/18 01:56:19;;;;;;;21.55;14.48;;;18.80;99.90;;;;;;4966709;28;20061;-49
2022/08/18 01:58:46;;;;;;;22.73;15.25;;;18.50;99.90;;;;;;4965932;28;20549;-46
2022/08/18 02:01:15;;;;;;;21.08;14.63;;;18.70;99.90;;;;;;4947849;28;20039;-48
2022/08/18 02:03:47;;;;;;;22.45;15.13;;;18.50;99.90;;;;;;4965757;28;20050;-47
2022/08/18 02:06:17;;;;;;;23.40;15.18;;;18.50;99.90;;;;;;4966288;28;20483;-47
2022/08/18 02:08:43;;;;;;;23.75;15.32;;;18.50;99.90;;;;;;4965038;28;20031;-46
2022/08/18 02:11:08;;;;;;;21.27;15.15;;;18.60;99.90;;;;;;4964517;28;20045;-45
2022/08/18 02:13:35;;;;;;;27.02;15.30;;;18.60;99.90;;;;;;4965828;28;20042;-45
2022/08/18 02:16:03;;;;;;;17.83;14.57;;;18.60;99.90;;;;;;4965736;28;20038;-46
2022/08/18 02:18:31;;;;;;;19.67;14.93;;;18.70;99.90;;;;;;4965345;28;20034;-47
2022/08/18 02:21:04;;;;;;;22.60;14.82;;;18.70;99.90;;;;;;4965050;28;20082;-50
2022/08/18 02:23:30;;;;;;;22.98;15.15;;;18.60;99.90;;;;;;4964036;28;20039;-46
2022/08/18 02:25:56;;;;;;;24.55;15.90;;;18.70;99.90;;;;;;4964850;28;20043;-49
2022/08/18 02:28:22;;;;;;;27.33;15.20;;;18.50;99.90;;;;;;4964991;28;20126;-50
2022/08/18 02:30:47;;;;;;;21.25;15.52;;;18.40;99.90;;;;;;4964549;28;20129;-47
2022/08/18 02:33:13;;;;;;;21.40;16.63;;;18.70;99.90;;;;;;4965550;28;20070;-47
2022/08/18 02:35:39;;;;;;;23.75;15.93;;;18.60;99.90;;;;;;4963917;28;20070;-48
2022/08/18 02:38:06;;;;;;;23.17;15.95;;;18.50;99.90;;;;;;4965385;28;20027;-47
2022/08/18 02:40:34;;;;;;;23.55;16.40;;;18.60;99.90;;;;;;4964858;28;20042;-48
2022/08/18 02:43:08;;;;;;;24.10;16.08;;;18.40;99.90;;;;;;4963857;28;20537;-46
2022/08/18 02:45:36;;;;;;;22.30;16.48;;;18.50;99.90;;;;;;4964433;28;20089;-46
2022/08/18 02:48:02;;;;;;;22.60;16.70;;;18.30;99.90;;;;;;4965220;28;20037;-46
2022/08/18 02:50:28;;;;;;;23.30;17.63;;;18.30;99.90;;;;;;4963316;28;20034;-46
2022/08/18 02:52:54;;;;;;;24.45;17.30;;;18.50;99.90;;;;;;4964742;28;20431;-48
2022/08/18 02:55:21;;;;;;;23.40;16.92;;;18.40;99.90;;;;;;4964647;28;20049;-46
2022/08/18 02:57:47;;;;;;;23.00;17.90;;;18.30;99.90;;;;;;4965002;28;20074;-45
2022/08/18 03:00:15;;;;;;;30.13;18.50;;;18.30;99.90;;;;;;4964331;28;20102;-46
2022/08/18 03:02:50;;;;;;;26.25;18.88;;;18.40;99.90;;;;;;4964334;28;20035;-46
2022/08/18 03:05:16;;;;;;;25.27;17.25;;;18.30;99.90;;;;;;4963786;28;20031;-47
2022/08/18 03:07:42;;;;;;;23.05;18.23;;;18.60;99.90;;;;;;4965068;28;20026;-47
2022/08/18 03:10:09;;;;;;;27.02;18.17;;;18.50;99.90;;;;;;4946377;28;20043;-47
2022/08/18 03:12:35;;;;;;;28.35;18.50;;;18.60;99.90;;;;;;4964150;28;20043;-45
2022/08/18 03:15:01;;;;;;;24.10;16.58;;;18.30;99.90;;;;;;4963491;28;20065;-46
2022/08/18 03:17:26;;;;;;;34.53;19.95;;;18.60;99.90;;;;;;4963409;28;20034;-47
2022/08/18 03:19:52;;;;;;;27.63;19.00;;;18.50;99.90;;;;;;4964080;28;20303;-46
2022/08/18 03:22:18;;;;;;;22.50;19.05;;;18.60;99.90;;;;;;4963041;28;20033;-48
2022/08/18 03:24:44;;;;;;;27.30;20.48;;;18.30;99.90;;;;;;4964282;28;20051;-46
2022/08/18 03:27:10;;;;;;;25.70;19.13;;;18.40;99.90;;;;;;4963758;28;20051;-47
2022/08/18 03:29:36;;;;;;;25.02;19.48;;;18.40;99.90;;;;;;4964169;28;20039;-48
2022/08/18 03:32:04;;;;;;;26.48;19.98;;;18.50;99.90;;;;;;4946716;28;20041;-48
2022/08/18 03:34:30;;;;;;;29.23;21.10;;;18.50;99.90;;;;;;4963094;28;20109;-48
2022/08/18 03:36:56;;;;;;;25.75;20.33;;;18.40;99.90;;;;;;4964222;28;20039;-46
2022/08/18 03:39:22;;;;;;;26.33;19.17;;;18.60;99.90;;;;;;4964053;28;20048;-45
2022/08/18 03:41:52;;;;;;;26.08;20.13;;;18.50;99.90;;;;;;4963968;28;20046;-45
2022/08/18 03:44:17;;;;;;;24.52;18.42;;;18.60;99.90;;;;;;4962232;28;20047;-49
2022/08/18 03:46:44;;;;;;;26.55;17.77;;;18.40;99.90;;;;;;4963454;28;20035;-45
2022/08/18 03:49:11;;;;;;;25.90;17.63;;;18.60;99.90;;;;;;4963221;28;20094;-46
2022/08/18 03:51:37;;;;;;;22.38;17.23;;;18.60;99.90;;;;;;4963026;28;20113;-49
2022/08/18 03:54:04;;;;;;;23.23;17.95;;;18.30;99.90;;;;;;4962862;28;20081;-48
2022/08/18 03:56:35;;;;;;;26.05;18.70;;;18.50;99.90;;;;;;4963663;28;20027;-48
2022/08/18 03:59:16;;;;;;;26.80;18.67;;;18.30;99.90;;;;;;4962634;28;20066;-45
2022/08/18 04:01:43;;;;;;;24.85;19.08;;;18.40;99.90;;;;;;4962767;28;20043;-46
2022/08/18 04:04:16;;;;;;;22.83;18.00;;;18.30;99.90;;;;;;4963987;28;20042;-47
2022/08/18 04:06:50;;;;;;;26.65;18.55;;;18.50;99.90;;;;;;4964446;28;20375;-48
2022/08/18 04:09:17;;;;;;;23.50;17.48;;;18.30;99.90;;;;;;4963592;28;20181;-47
2022/08/18 04:11:44;;;;;;;22.67;17.55;;;18.50;99.90;;;;;;4963504;28;20046;-48
2022/08/18 04:14:15;;;;;;;22.02;17.00;;;18.50;99.90;;;;;;4964056;28;20129;-49
2022/08/18 04:16:41;;;;;;;22.33;17.48;;;18.40;99.90;;;;;;4963691;28;20058;-50
2022/08/18 04:19:07;;;;;;;23.77;17.20;;;18.30;99.90;;;;;;4961127;28;20039;-45
2022/08/18 04:21:37;;;;;;;21.85;18.33;;;18.30;99.90;;;;;;4962320;28;20038;-47
2022/08/18 04:24:04;;;;;;;21.55;17.55;;;18.60;99.90;;;;;;4962835;28;20051;-48
2022/08/18 04:26:41;;;;;;;20.92;18.70;;;18.40;99.90;;;;;;4962392;28;20034;-46
2022/08/18 04:29:09;;;;;;;24.30;17.65;;;18.30;99.90;;;;;;4962783;28;20052;-47
2022/08/18 04:31:35;;;;;;;22.90;17.35;;;18.50;99.90;;;;;;4963956;28;20046;-49
2022/08/18 04:34:02;;;;;;;24.92;19.10;;;18.50;99.90;;;;;;4962165;28;20063;-47
2022/08/18 04:36:30;;;;;;;24.90;19.30;;;18.50;99.90;;;;;;4962802;28;20156;-47
2022/08/18 04:38:57;;;;;;;22.92;18.65;;;18.40;99.90;;;;;;4961606;28;20054;-45
2022/08/18 04:41:25;;;;;;;25.70;18.27;;;18.50;99.90;;;;;;4961353;28;20068;-49
2022/08/18 04:43:59;;;;;;;26.73;19.13;;;18.40;99.90;;;;;;4962915;28;20478;-44
2022/08/18 04:46:26;;;;;;;25.67;17.70;;;18.60;99.90;;;;;;4962079;28;20063;-48
2022/08/18 04:48:57;;;;;;;24.88;17.58;;;18.60;99.90;;;;;;4962938;28;20074;-48
2022/08/18 04:51:25;;;;;;;22.25;17.85;;;18.60;99.90;;;;;;4962563;28;20042;-46
2022/08/18 04:53:51;;;;;;;25.40;17.48;;;18.60;99.90;;;;;;4962838;28;20058;-49
2022/08/18 04:56:26;;;;;;;26.33;17.88;;;18.60;99.90;;;;;;4962350;28;20031;-47
2022/08/18 04:59:02;;;;;;;23.80;18.40;;;18.40;99.90;;;;;;4961886;28;20034;-47
2022/08/18 05:01:32;;;;;;;22.55;17.75;;;18.50;99.90;;;;;;4962701;28;20038;-47
2022/08/18 05:03:58;;;;;;;23.45;17.90;;;18.60;99.90;;;;;;4961944;28;20043;-46
2022/08/18 05:06:25;;;;;;;25.20;18.08;;;18.40;99.90;;;;;;4962593;28;20369;-46
2022/08/18 05:08:54;;;;;;;21.40;17.38;;;18.60;99.90;;;;;;4962550;28;20080;-47
2022/08/18 05:11:22;;;;;;;23.83;17.48;;;18.70;99.90;;;;;;4961824;28;20023;-47
2022/08/18 05:13:48;;;;;;;28.23;17.80;;;18.40;99.90;;;;;;4961297;28;20100;-46
2022/08/18 05:16:14;;;;;;;21.75;16.77;;;18.40;99.90;;;;;;4961487;28;20043;-47
2022/08/18 05:18:40;;;;;;;24.00;17.42;;;18.40;99.90;;;;;;4962913;28;20031;-46
2022/08/18 05:21:07;;;;;;;19.75;16.58;;;18.40;99.90;;;;;;4960731;28;20093;-46
2022/08/18 05:23:34;;;;;;;25.55;17.30;;;18.70;99.90;;;;;;4962504;28;20035;-47
2022/08/18 05:26:02;;;;;;;21.17;16.02;;;18.40;99.90;;;;;;4963244;28;20391;-48
2022/08/18 05:28:30;;;;;;;18.13;15.40;;;18.50;99.90;;;;;;4944372;28;20531;-47
2022/08/18 05:30:56;;;;;;;20.88;15.85;;;18.60;99.90;;;;;;4961172;28;20037;-47
2022/08/18 05:33:23;;;;;;;21.55;16.23;;;18.50;99.90;;;;;;4962521;28;20051;-45
2022/08/18 05:36:18;;;;;;;20.63;15.70;;;18.50;99.90;;;;;;4961498;28;20544;-47
2022/08/18 05:39:26;;;;;;;23.25;16.08;;;18.60;99.90;;;;;;4961318;28;20288;-46
2022/08/18 05:42:10;;;;;;;20.05;15.40;;;18.40;99.90;;;;;;4962003;28;20031;-47
2022/08/18 05:44:40;;;;;;;21.70;15.80;;;18.50;99.90;;;;;;4961327;28;20054;-48
2022/08/18 05:47:30;;;;;;;20.90;14.90;;;18.80;99.90;;;;;;4961236;28;20121;-48
2022/08/18 05:50:02;;;;;;;18.48;14.82;;;18.60;99.90;;;;;;4962287;28;20553;-47
2022/08/18 05:52:34;;;;;;;19.30;14.25;;;18.80;99.90;;;;;;4961606;28;20086;-49
2022/08/18 05:57:57;;;;;;;17.17;13.32;;;18.60;99.90;;;;;;4961858;28;20461;-47
2022/08/18 06:00:23;;;;;;;;;;;18.60;99.90;;;;;;4962043;28;20046;-48
2022/08/18 06:02:55;;;;;;;14.15;11.90;;;18.70;99.90;;;;;;4961938;28;19918;-47
2022/08/18 06:05:39;;;;;;;17.30;12.40;;;18.70;99.90;;;;;;4960439;28;21104;-45
2022/08/18 06:08:10;;;;;;;14.88;11.70;;;18.70;99.90;;;;;;4957122;28;20029;-49
2022/08/18 06:10:42;;;;;;;18.52;12.98;;;19.00;99.90;;;;;;4958081;28;20039;-50
2022/08/18 06:13:09;;;;;;;16.10;12.30;;;18.90;99.90;;;;;;4941563;28;20125;-50
2022/08/18 06:15:47;;;;;;;18.58;11.80;;;18.70;99.90;;;;;;4959017;28;20035;-46
2022/08/18 06:18:24;;;;;;;18.30;12.13;;;18.70;99.90;;;;;;4958939;28;20090;-48
2022/08/18 06:21:02;;;;;;;16.42;12.05;;;18.70;99.90;;;;;;4958045;28;20022;-47
2022/08/18 06:23:57;;;;;;;15.75;11.82;;;18.90;99.90;;;;;;4956404;28;20039;-47
2022/08/18 06:26:49;;;;;;;17.08;12.13;;;18.70;99.90;;;;;;4959712;28;20132;-47
2022/08/18 06:29:39;;;;;;;18.77;13.23;;;18.90;99.90;;;;;;4960214;28;20042;-48
2022/08/18 06:32:33;;;;;;;15.63;12.25;;;18.70;99.90;;;;;;4963330;28;20430;-47
2022/08/18 06:35:48;;;;;;;19.52;12.98;;;19.00;99.90;;;;;;4963904;28;20138;-46
2022/08/18 06:41:07;;;;;;;17.45;13.07;;;19.00;99.90;;;;;;4962180;28;20152;-47
2022/08/18 06:43:34;;;;;;;17.15;13.10;;;19.10;99.90;;;;;;4961461;28;20118;-50
2022/08/18 06:46:07;;;;;;;19.02;13.68;;;18.90;99.90;;;;;;4963097;28;20582;-47
2022/08/18 06:48:46;;;;;;;17.02;13.75;;;18.90;99.90;;;;;;4963013;28;20042;-50
2022/08/18 06:51:16;;;;;;;18.77;13.68;;;19.10;99.90;;;;;;4960640;28;20125;-47
2022/08/18 06:54:34;;;;;;;17.92;14.15;;;19.10;99.90;;;;;;4963140;28;20187;-50
2022/08/18 06:57:00;;;;;;;17.02;13.25;;;19.00;99.90;;;;;;4941202;28;20565;-50
2022/08/18 06:59:35;;;;;;;20.25;13.93;;;19.10;99.90;;;;;;4961525;28;20482;-47
2022/08/18 07:02:35;;;;;;;16.08;14.35;;;19.10;99.90;;;;;;4962345;28;20742;-51
2022/08/18 07:05:18;;;;;;;19.55;14.43;;;19.40;99.90;;;;;;4962045;28;20035;-49
2022/08/18 07:07:44;;;;;;;18.70;14.50;;;19.30;99.90;;;;;;4961184;28;20276;-49
2022/08/18 07:10:12;;;;;;;20.85;14.30;;;19.40;99.90;;;;;;4963133;28;20046;-48
2022/08/18 07:12:38;;;;;;;20.17;14.75;;;19.50;99.90;;;;;;4961493;28;20051;-47
2022/08/18 07:15:06;;;;;;;17.85;14.40;;;19.50;99.90;;;;;;4960217;28;20038;-49
2022/08/18 07:17:39;;;;;;;17.83;13.32;;;19.70;99.90;;;;;;4963226;28;20101;-48
2022/08/18 07:20:09;;;;;;;18.60;12.40;;;19.60;99.90;;;;;;4961530;28;20046;-48
2022/08/18 07:23:01;;;;;;;14.63;10.80;;;19.70;99.90;;;;;;4960862;28;20045;-46
2022/08/18 07:25:36;;;;;;;17.60;11.25;;;19.70;99.90;;;;;;4942506;28;20059;-49
2022/08/18 07:28:03;;;;;;;20.85;11.57;;;19.70;99.90;;;;;;4960494;28;20043;-48
2022/08/18 07:30:33;;;;;;;14.57;10.63;;;19.80;99.90;;;;;;4960616;28;20097;-51
2022/08/18 07:33:12;;;;;;;11.60;9.80;;;20.00;99.90;;;;;;4960764;28;20070;-47
2022/08/18 07:35:55;;;;;;;14.63;9.73;;;20.10;99.90;;;;;;4960371;28;20136;-48
2022/08/18 07:38:36;;;;;;;11.43;8.25;;;20.00;99.90;;;;;;4959408;28;20419;-47
2022/08/18 07:41:07;;;;;;;11.80;9.15;;;20.00;99.90;;;;;;4959264;28;20039;-47
2022/08/18 07:43:52;;;;;;;11.90;8.75;;;20.20;99.90;;;;;;4960799;28;20387;-49
2022/08/18 07:46:42;;;;;;;12.68;8.60;;;20.30;99.90;;;;;;4958621;28;21697;-47
2022/08/18 07:49:09;;;;;;;11.73;8.23;;;20.30;99.90;;;;;;4957953;28;20135;-49
2022/08/18 07:51:48;;;;;;;11.70;8.05;;;20.30;99.90;;;;;;4960300;28;20043;-50
2022/08/18 07:54:37;;;;;;;14.82;8.60;;;20.20;99.90;;;;;;4962123;28;20142;-48
2022/08/18 07:57:11;;;;;;;11.40;7.75;;;20.40;99.90;;;;;;4962591;28;20034;-48
2022/08/18 07:59:46;;;;;;;11.52;7.97;;;20.40;99.90;;;;;;4962067;28;20046;-47
2022/08/18 08:02:14;;;;;;;11.40;7.53;;;20.50;99.90;;;;;;4963118;28;20049;-46
2022/08/18 08:05:02;;;;;;;12.43;7.47;;;20.50;99.90;;;;;;4960508;28;20045;-47
2022/08/18 08:07:39;;;;;;;10.85;7.13;;;20.60;99.90;;;;;;4960375;28;20043;-46
2022/08/18 08:10:36;;;;;;;9.43;6.43;;;20.60;99.90;;;;;;4960270;28;20054;-46
2022/08/18 08:13:04;;;;;;;11.25;6.70;;;20.70;99.90;;;;;;4962091;28;20451;-49
2022/08/18 08:16:00;;;;;;;11.60;7.53;;;20.80;99.90;;;;;;4961831;28;20042;-50
2022/08/18 08:18:53;;;;;;;10.57;6.80;;;20.90;99.90;;;;;;4956479;28;20394;-48
2022/08/18 08:21:23;;;;;;;12.88;6.53;;;21.00;99.90;;;;;;4960907;28;20488;-46
2022/08/18 08:24:10;;;;;;;9.90;5.43;;;21.10;99.90;;;;;;4961599;28;20106;-48
2022/08/18 08:26:48;;;;;;;12.52;6.00;;;21.20;99.90;;;;;;4961819;28;20047;-48
2022/08/18 08:29:37;;;;;;;8.65;5.82;;;21.30;99.90;;;;;;4961336;28;20109;-48
2022/08/18 08:32:09;;;;;;;9.93;5.50;;;21.30;99.90;;;;;;4950093;28;20129;-47
2022/08/18 08:34:56;;;;;;;10.95;5.90;;;21.50;99.90;;;;;;4961038;28;20050;-48
2022/08/18 08:37:51;;;;;;;10.38;5.40;;;21.70;99.90;;;;;;4958916;28;20031;-46
2022/08/18 08:40:52;;;;;;;18.85;5.40;;;21.80;99.90;;;;;;4951405;28;20170;-47
2022/08/18 08:43:30;;;;;;;10.10;5.00;;;21.70;99.90;;;;;;4925920;28;20196;-47
2022/08/18 08:46:20;;;;;;;11.38;5.45;;;21.40;99.90;;;;;;4959840;28;20183;-49
2022/08/18 08:48:55;;;;;;;8.23;4.90;;;21.40;99.90;;;;;;4960931;28;20046;-48
2022/08/18 08:51:36;;;;;;;8.63;4.63;;;21.20;99.90;;;;;;4958314;28;20066;-48
2022/08/18 08:54:12;;;;;;;8.38;4.53;;;21.10;99.90;;;;;;4960690;28;20050;-48
2022/08/18 08:56:43;;;;;;;9.40;4.22;;;21.10;99.90;;;;;;4955674;28;20427;-50
2022/08/18 08:59:12;;;;;;;8.52;3.55;;;21.10;99.90;;;;;;4956528;28;20031;-51
2022/08/18 09:02:10;;;;;;;8.13;3.60;;;21.10;99.90;;;;;;4968551;28;20114;-49
2022/08/18 09:04:54;;;;;;;9.48;3.80;;;21.20;99.90;;;;;;4969795;28;21264;-48
2022/08/18 09:07:32;;;;;;;5.68;3.10;;;21.20;99.90;;;;;;4971813;28;20042;-48
2022/08/18 09:10:19;;;;;;;7.40;3.50;;;21.40;99.90;;;;;;4971172;28;20039;-48
2022/08/18 09:13:15;;;;;;;9.55;3.15;;;21.80;99.90;;;;;;4971325;28;20454;-49
2022/08/18 09:16:12;;;;;;;5.65;3.50;;;21.90;99.90;;;;;;4971297;28;20046;-50
2022/08/18 09:18:49;;;;;;;9.75;3.70;;;22.30;99.90;;;;;;4970909;28;20051;-46
2022/08/18 09:21:18;;;;;;;9.80;3.63;;;22.30;99.90;;;;;;4970924;28;20074;-46
2022/08/18 09:23:49;;;;;;;8.27;3.75;;;22.30;99.90;;;;;;4971005;28;20058;-49
2022/08/18 09:26:38;;;;;;;7.35;3.38;;;22.10;99.90;;;;;;4971482;28;20393;-51
2022/08/18 09:29:39;;;;;;;6.32;2.78;;;21.90;99.90;;;;;;4953641;28;20050;-50
2022/08/18 09:32:50;;;;;;;6.65;2.25;;;21.70;99.90;;;;;;4942512;28;20056;-49
2022/08/18 09:35:34;;;;;;;6.32;2.35;;;21.60;99.90;;;;;;4952793;28;20039;-48
2022/08/18 09:41:31;;;;;;;6.22;2.22;;;21.60;99.90;;;;;;4950734;28;20384;-49
2022/08/18 09:44:09;;;;;;;5.30;2.00;;;21.50;99.90;;;;;;4969984;28;20049;-46
2022/08/18 09:46:41;;;;;;;5.25;2.63;;;21.50;99.90;;;;;;4970807;28;20054;-48
2022/08/18 09:49:23;;;;;;;4.53;2.17;;;21.60;99.90;;;;;;4971269;28;20053;-46
2022/08/18 09:51:58;;;;;;;7.28;2.25;;;21.80;99.90;;;;;;4970939;28;20046;-47
2022/08/18 09:54:26;;;;;;;6.30;2.60;;;22.40;99.90;;;;;;4971097;28;20478;-50
2022/08/18 09:57:15;;;;;;;5.80;2.50;;;22.70;99.90;;;;;;4971047;28;20173;-45
2022/08/18 09:59:43;;;;;;;6.45;2.50;;;23.20;99.90;;;;;;4970940;28;21218;-47
2022/08/18 10:02:13;;;;;;;4.15;1.88;;;23.30;99.90;;;;;;4971202;28;20125;-47
2022/08/18 10:04:49;;;;;;;5.30;2.05;;;22.80;99.90;;;;;;4972850;28;20070;-47
2022/08/18 10:07:18;;;;;;;4.50;1.80;;;22.60;99.90;;;;;;4955654;28;20097;-47
2022/08/18 10:09:46;;;;;;;5.28;1.67;;;22.40;99.90;;;;;;4955490;28;20498;-49
2022/08/18 10:12:38;;;;;;;3.50;1.60;;;22.30;99.90;;;;;;4955563;28;20047;-48
2022/08/18 10:15:25;;;;;;;5.07;1.98;;;22.20;99.90;;;;;;4955428;28;20039;-49
2022/08/18 10:18:08;;;;;;;3.92;1.60;;;22.20;99.90;;;;;;4955262;28;20126;-47
2022/08/18 10:20:53;;;;;;;5.07;1.90;;;22.80;99.90;;;;;;4958418;28;20042;-50
2022/08/18 10:23:50;;;;;;;5.72;1.80;;;22.90;99.90;;;;;;4974458;28;20046;-49
2022/08/18 10:26:36;;;;;;;3.35;1.30;;;23.10;99.90;;;;;;4974183;28;20046;-48
2022/08/18 10:29:20;;;;;;;2.83;1.25;;;23.30;99.90;;;;;;4974451;28;20049;-45
2022/08/18 10:31:58;;;;;;;4.03;1.17;;;23.10;99.90;;;;;;4974011;28;20130;-48
2022/08/18 10:34:48;;;;;;;2.67;1.20;;;23.00;99.90;;;;;;4974020;28;20035;-47
2022/08/18 10:37:14;;;;;;;2.88;1.20;;;22.90;99.90;;;;;;4974091;28;20034;-46
2022/08/18 10:39:39;;;;;;;1.52;1.00;;;23.10;99.90;;;;;;4974295;28;20094;-49
2022/08/18 10:42:11;;;;;;;3.42;1.20;;;23.10;99.90;;;;;;4973429;28;20042;-45
2022/08/18 10:44:44;;;;;;;3.20;1.00;;;23.00;99.90;;;;;;4973942;28;20031;-48
2022/08/18 10:47:21;;;;;;;2.92;1.10;;;23.00;99.90;;;;;;4973795;28;20252;-50
2022/08/18 10:49:51;;;;;;;2.00;0.90;;;23.00;99.90;;;;;;4973566;28;20049;-45
2022/08/18 10:52:39;;;;;;;2.90;1.02;;;23.00;99.90;;;;;;4972978;28;20038;-49
2022/08/18 10:55:14;;;;;;;2.55;1.20;;;22.90;99.90;;;;;;4973841;28;20065;-47
2022/08/18 10:58:01;;;;;;;2.30;1.00;;;23.00;99.90;;;;;;4973728;28;20046;-49
2022/08/18 11:00:59;;;;;;;1.48;0.77;;;23.40;99.90;;;;;;4965747;28;20055;-47
2022/08/18 11:03:55;;;;;;;2.63;1.08;;;23.70;99.90;;;;;;4942464;28;20050;-48
2022/08/18 11:06:25;;;;;;;2.03;0.90;;;23.70;99.90;;;;;;4958956;28;20077;-49
2022/08/18 11:08:58;;;;;;;3.95;1.00;;;23.90;99.90;;;;;;4956247;28;20398;-49
2022/08/18 11:11:31;;;;;;;1.70;0.80;;;23.80;99.90;;;;;;4957762;28;20066;-49
2022/08/18 11:14:13;;;;;;;3.13;1.13;;;23.80;99.90;;;;;;4958558;28;20632;-49
2022/08/18 11:17:04;;;;;;;3.40;0.95;;;23.50;99.90;;;;;;4956897;28;20135;-51
2022/08/18 11:19:37;;;;;;;2.97;0.98;;;23.40;99.90;;;;;;4957884;28;20058;-50
2022/08/18 11:22:03;;;;;;;3.55;1.13;;;23.40;99.90;;;;;;4955616;28;20045;-49
2022/08/18 11:24:34;;;;;;;3.33;0.90;;;23.20;99.90;;;;;;4955183;28;20107;-47
2022/08/18 11:27:17;;;;;;;2.03;0.80;;;23.20;99.90;;;;;;4960717;28;20046;-50
2022/08/18 11:29:45;;;;;;;2.95;1.02;;;23.10;99.90;;;;;;4957299;28;20056;-49
2022/08/18 11:32:31;;;;;;;2.85;1.08;;;23.10;99.90;;;;;;4964395;28;20078;-51
2022/08/18 11:34:57;;;;;;;2.95;1.10;;;23.10;99.90;;;;;;4945656;28;20489;-49
2022/08/18 11:37:35;;;;;;;2.85;1.05;;;23.00;99.90;;;;;;4961279;28;20126;-47
2022/08/18 11:40:04;;;;;;;3.67;1.25;;;23.00;99.90;;;;;;4966567;28;20049;-47
2022/08/18 11:42:33;;;;;;;2.75;1.10;;;23.10;99.90;;;;;;4965584;28;20034;-48
2022/08/18 11:45:17;;;;;;;5.05;1.45;;;23.20;99.90;;;;;;4967644;28;20054;-50
2022/08/18 11:48:23;;;;;;;3.42;1.00;;;23.30;99.90;;;;;;4961611;28;20521;-49
2022/08/18 11:50:51;;;;;;;3.70;1.27;;;23.40;99.90;;;;;;4931840;28;20716;-49
2022/08/18 11:53:23;;;;;;;4.10;1.30;;;23.50;99.90;;;;;;4959995;28;20051;-46
2022/08/18 11:56:03;;;;;;;3.55;1.35;;;23.40;99.90;;;;;;4960955;28;20031;-45
2022/08/18 11:58:54;;;;;;;3.40;1.30;;;23.70;99.90;;;;;;4959222;28;20182;-47
2022/08/18 12:01:48;;;;;;;4.43;1.35;;;23.80;99.90;;;;;;4960788;28;20065;-46
2022/08/18 12:04:27;;;;;;;2.95;1.20;;;23.80;99.90;;;;;;4960216;28;20104;-46
2022/08/18 12:06:58;;;;;;;2.92;1.10;;;23.80;99.90;;;;;;4960941;28;20047;-48
2022/08/18 12:09:43;;;;;;;2.95;1.20;;;24.00;99.90;;;;;;4960327;28;20495;-49
2022/08/18 12:12:23;;;;;;;3.47;1.05;;;24.20;99.90;;;;;;4960539;28;20045;-48
2022/08/18 12:15:05;;;;;;;3.80;0.95;;;24.30;99.90;;;;;;4959653;28;20074;-49
2022/08/18 12:17:31;;;;;;;3.13;1.13;;;24.20;99.90;;;;;;4959182;28;20407;-50
2022/08/18 12:19:58;;;;;;;1.75;0.80;;;24.50;99.90;;;;;;4960793;28;20035;-48
2022/08/18 12:22:33;;;;;;;2.38;1.00;;;24.60;99.90;;;;;;4941916;28;20038;-49
2022/08/18 12:25:00;;;;;;;3.00;1.10;;;24.60;99.90;;;;;;4959762;28;20070;-45
2022/08/18 12:27:28;;;;;;;2.58;0.98;;;24.70;99.90;;;;;;4962843;28;20119;-47
2022/08/18 12:29:56;;;;;;;3.60;1.00;;;24.50;99.90;;;;;;4962711;28;20054;-46
2022/08/18 12:32:24;;;;;;;2.80;0.90;;;24.70;99.90;;;;;;4963101;28;20406;-49
2022/08/18 12:34:50;;;;;;;3.47;1.10;;;25.40;99.90;;;;;;4961257;28;20483;-46
2022/08/18 12:37:21;;;;;;;3.72;1.05;;;25.90;99.90;;;;;;4961536;28;20050;-46
2022/08/18 12:39:47;;;;;;;3.08;1.10;;;25.70;99.90;;;;;;4962307;28;20044;-46
2022/08/18 12:42:13;;;;;;;1.55;0.82;;;25.90;99.90;;;;;;4963441;28;20065;-46
2022/08/18 12:44:40;;;;;;;4.57;1.10;;;26.00;99.90;;;;;;4963103;28;20101;-48
2022/08/18 12:47:14;;;;;;;2.97;1.00;;;26.40;99.90;;;;;;4959980;28;20082;-48
2022/08/18 12:49:40;;;;;;;2.10;0.80;;;26.50;99.90;;;;;;4962121;28;20398;-49
2022/08/18 12:52:06;;;;;;;3.58;0.80;;;26.40;99.90;;;;;;4962812;28;20479;-51
2022/08/18 12:54:34;;;;;;;2.50;0.75;;;26.00;99.90;;;;;;4961933;28;20051;-47
2022/08/18 12:57:00;;;;;;;3.28;0.80;;;26.10;99.90;;;;;;4963429;28;20031;-47
2022/08/18 12:59:26;;;;;;;2.80;1.00;;;26.40;99.90;;;;;;4962186;28;20038;-49
2022/08/18 13:01:52;;;;;;;3.30;1.00;;;26.70;99.90;;;;;;4945842;28;20520;-46
2022/08/18 13:04:19;;;;;;;2.55;0.90;;;26.70;99.90;;;;;;4962296;28;20139;-49
2022/08/18 13:06:51;;;;;;;2.70;0.93;;;27.00;99.90;;;;;;4961488;28;20615;-47
2022/08/18 13:09:17;;;;;;;2.03;0.73;;;27.20;99.90;;;;;;4962299;28;20435;-49
2022/08/18 13:11:42;;;;;;;2.97;0.90;;;27.10;99.90;;;;;;4962382;28;20090;-48
2022/08/18 13:14:08;;;;;;;1.70;0.68;;;27.00;99.90;;;;;;4962125;28;20046;-46
2022/08/18 13:16:37;;;;;;;2.05;0.82;;;27.40;99.90;;;;;;4962249;28;20053;-51
2022/08/18 13:19:04;;;;;;;2.85;0.90;;;27.30;99.90;;;;;;4962661;28;20031;-47
2022/08/18 13:21:29;;;;;;;3.28;0.90;;;27.60;99.90;;;;;;4962269;28;20090;-49
2022/08/18 13:23:55;;;;;;;3.08;1.00;;;27.70;99.90;;;;;;4962270;28;20059;-48